Wilbur by the Sea, Florida
Current Conditions -  °F | °C
As of 7:47 PM on Sunday 21 Dec 2014 (Local Time) from KEVB Reporting Station
Light Rain Light Rain  
Wind Chill: 19°   Ceiling: 7000
Heat Index: 19°   Visibility: 4mi
Dew Point: 19°   Wind: 0mph
Humidity: 100%   Direction: NA
Pressure: 30.05"   Gusts: NA
Location:  29.1091°N, 80.9979°W
Report Text: KEVB 220047Z 00000KT 4SM -BRRA FEW045 BKN070 19/19 A3005
Loading
Personal Weather Stations






























Interactive Weather Map New forecast layout! Learn more

10-Day Weather Forecast

Advertisements
Track Severe Weather on mobile